sensor_id;sensor_type;location;lat;lon;timestamp;P1;durP1;ratioP1;P2;durP2;ratioP2
48849;SDS011;63210;53.370;6.770;2023-06-22T00:00:26;25.92;;;22.52;;
48849;SDS011;63210;53.370;6.770;2023-06-22T00:02:52;34.58;;;26.52;;
48849;SDS011;63210;53.370;6.770;2023-06-22T00:05:17;25.33;;;22.42;;
48849;SDS011;63210;53.370;6.770;2023-06-22T00:07:42;23.08;;;20.55;;
48849;SDS011;63210;53.370;6.770;2023-06-22T00:10:08;20.73;;;18.10;;
48849;SDS011;63210;53.370;6.770;2023-06-22T00:12:33;17.90;;;15.68;;
48849;SDS011;63210;53.370;6.770;2023-06-22T00:14:58;34.83;;;29.17;;
48849;SDS011;63210;53.370;6.770;2023-06-22T00:17:23;27.55;;;24.00;;
48849;SDS011;63210;53.370;6.770;2023-06-22T00:19:49;22.75;;;20.35;;
48849;SDS011;63210;53.370;6.770;2023-06-22T00:22:18;20.98;;;18.15;;
48849;SDS011;63210;53.370;6.770;2023-06-22T00:24:46;23.48;;;20.60;;
48849;SDS011;63210;53.370;6.770;2023-06-22T00:27:11;26.77;;;23.87;;
48849;SDS011;63210;53.370;6.770;2023-06-22T00:29:37;33.95;;;27.90;;
48849;SDS011;63210;53.370;6.770;2023-06-22T00:32:02;33.40;;;25.23;;
48849;SDS011;63210;53.370;6.770;2023-06-22T00:34:28;30.30;;;25.20;;
48849;SDS011;63210;53.370;6.770;2023-06-22T00:36:53;24.87;;;20.73;;
48849;SDS011;63210;53.370;6.770;2023-06-22T00:39:18;20.25;;;17.73;;
48849;SDS011;63210;53.370;6.770;2023-06-22T00:41:43;31.13;;;23.37;;
48849;SDS011;63210;53.370;6.770;2023-06-22T00:44:09;32.40;;;27.38;;
48849;SDS011;63210;53.370;6.770;2023-06-22T00:46:34;32.08;;;25.83;;
48849;SDS011;63210;53.370;6.770;2023-06-22T00:48:59;26.80;;;23.90;;
48849;SDS011;63210;53.370;6.770;2023-06-22T00:51:25;24.98;;;20.10;;
48849;SDS011;63210;53.370;6.770;2023-06-22T00:53:51;19.23;;;15.05;;
48849;SDS011;63210;53.370;6.770;2023-06-22T00:56:18;14.93;;;13.35;;
48849;SDS011;63210;53.370;6.770;2023-06-22T00:58:45;21.88;;;19.52;;
48849;SDS011;63210;53.370;6.770;2023-06-22T01:01:11;22.45;;;19.63;;
48849;SDS011;63210;53.370;6.770;2023-06-22T01:03:36;23.27;;;20.38;;
48849;SDS011;63210;53.370;6.770;2023-06-22T01:06:06;23.52;;;21.00;;
48849;SDS011;63210;53.370;6.770;2023-06-22T01:08:48;22.13;;;19.00;;
48849;SDS011;63210;53.370;6.770;2023-06-22T01:11:23;20.58;;;18.38;;
48849;SDS011;63210;53.370;6.770;2023-06-22T01:18:47;30.95;;;24.67;;
48849;SDS011;63210;53.370;6.770;2023-06-22T01:21:16;30.45;;;24.40;;
48849;SDS011;63210;53.370;6.770;2023-06-22T01:28:56;22.98;;;17.33;;
48849;SDS011;63210;53.370;6.770;2023-06-22T01:31:23;26.02;;;22.50;;
48849;SDS011;63210;53.370;6.770;2023-06-22T01:33:57;25.75;;;20.90;;
48849;SDS011;63210;53.370;6.770;2023-06-22T01:36:23;20.48;;;18.23;;
48849;SDS011;63210;53.370;6.770;2023-06-22T01:38:49;19.00;;;17.00;;
48849;SDS011;63210;53.370;6.770;2023-06-22T01:41:15;21.23;;;17.95;;
48849;SDS011;63210;53.370;6.770;2023-06-22T01:43:41;20.58;;;18.30;;
48849;SDS011;63210;53.370;6.770;2023-06-22T01:46:06;20.77;;;18.58;;
48849;SDS011;63210;53.370;6.770;2023-06-22T01:48:32;21.85;;;18.95;;
48849;SDS011;63210;53.370;6.770;2023-06-22T01:50:57;20.52;;;16.95;;
48849;SDS011;63210;53.370;6.770;2023-06-22T01:53:22;18.95;;;16.20;;
48849;SDS011;63210;53.370;6.770;2023-06-22T01:55:48;22.25;;;18.13;;
48849;SDS011;63210;53.370;6.770;2023-06-22T01:58:13;19.70;;;16.27;;
48849;SDS011;63210;53.370;6.770;2023-06-22T02:00:39;24.45;;;19.65;;
48849;SDS011;63210;53.370;6.770;2023-06-22T02:03:08;24.70;;;19.27;;
48849;SDS011;63210;53.370;6.770;2023-06-22T02:05:36;22.20;;;17.67;;
48849;SDS011;63210;53.370;6.770;2023-06-22T02:10:28;19.67;;;17.57;;
48849;SDS011;63210;53.370;6.770;2023-06-22T02:12:53;18.83;;;16.92;;
48849;SDS011;63210;53.370;6.770;2023-06-22T02:15:19;15.80;;;14.30;;
48849;SDS011;63210;53.370;6.770;2023-06-22T02:17:45;15.35;;;13.40;;
48849;SDS011;63210;53.370;6.770;2023-06-22T02:20:13;13.65;;;12.27;;
48849;SDS011;63210;53.370;6.770;2023-06-22T02:22:39;21.33;;;17.85;;
48849;SDS011;63210;53.370;6.770;2023-06-22T02:25:04;18.13;;;16.33;;
48849;SDS011;63210;53.370;6.770;2023-06-22T02:27:29;26.75;;;20.17;;
48849;SDS011;63210;53.370;6.770;2023-06-22T02:29:55;19.40;;;17.30;;
48849;SDS011;63210;53.370;6.770;2023-06-22T02:32:20;17.97;;;15.80;;
48849;SDS011;63210;53.370;6.770;2023-06-22T02:34:45;18.92;;;16.45;;
48849;SDS011;63210;53.370;6.770;2023-06-22T02:37:13;12.45;;;11.07;;
48849;SDS011;63210;53.370;6.770;2023-06-22T02:39:39;14.82;;;13.02;;
48849;SDS011;63210;53.370;6.770;2023-06-22T02:42:05;16.10;;;14.25;;
48849;SDS011;63210;53.370;6.770;2023-06-22T02:44:30;19.35;;;14.93;;
48849;SDS011;63210;53.370;6.770;2023-06-22T02:46:56;19.33;;;14.88;;
48849;SDS011;63210;53.370;6.770;2023-06-22T02:49:21;19.02;;;15.65;;
48849;SDS011;63210;53.370;6.770;2023-06-22T02:51:47;19.08;;;17.02;;
48849;SDS011;63210;53.370;6.770;2023-06-22T02:54:12;18.70;;;15.85;;
48849;SDS011;63210;53.370;6.770;2023-06-22T02:56:38;20.88;;;16.42;;
48849;SDS011;63210;53.370;6.770;2023-06-22T02:59:05;18.38;;;16.40;;
48849;SDS011;63210;53.370;6.770;2023-06-22T03:01:31;25.85;;;19.63;;
48849;SDS011;63210;53.370;6.770;2023-06-22T03:04:02;25.30;;;21.60;;
48849;SDS011;63210;53.370;6.770;2023-06-22T03:06:28;21.70;;;19.20;;
48849;SDS011;63210;53.370;6.770;2023-06-22T03:08:58;25.92;;;21.08;;
48849;SDS011;63210;53.370;6.770;2023-06-22T03:11:24;23.50;;;18.35;;
48849;SDS011;63210;53.370;6.770;2023-06-22T03:13:49;19.77;;;17.02;;
48849;SDS011;63210;53.370;6.770;2023-06-22T03:16:17;22.95;;;19.38;;
48849;SDS011;63210;53.370;6.770;2023-06-22T03:18:42;25.27;;;21.02;;
48849;SDS011;63210;53.370;6.770;2023-06-22T03:21:07;25.23;;;22.30;;
48849;SDS011;63210;53.370;6.770;2023-06-22T03:23:33;25.60;;;21.05;;
48849;SDS011;63210;53.370;6.770;2023-06-22T03:25:58;24.58;;;21.80;;
48849;SDS011;63210;53.370;6.770;2023-06-22T03:28:23;23.93;;;20.93;;
48849;SDS011;63210;53.370;6.770;2023-06-22T03:30:48;25.08;;;21.27;;
48849;SDS011;63210;53.370;6.770;2023-06-22T03:33:14;29.50;;;25.23;;
48849;SDS011;63210;53.370;6.770;2023-06-22T03:35:39;29.55;;;26.02;;
48849;SDS011;63210;53.370;6.770;2023-06-22T03:38:04;31.00;;;25.37;;
48849;SDS011;63210;53.370;6.770;2023-06-22T03:40:29;38.45;;;30.08;;
48849;SDS011;63210;53.370;6.770;2023-06-22T03:42:55;40.83;;;32.92;;
48849;SDS011;63210;53.370;6.770;2023-06-22T03:45:20;47.90;;;36.70;;
48849;SDS011;63210;53.370;6.770;2023-06-22T03:47:45;42.53;;;35.13;;
48849;SDS011;63210;53.370;6.770;2023-06-22T03:50:11;45.40;;;37.88;;
48849;SDS011;63210;53.370;6.770;2023-06-22T03:52:36;39.30;;;33.67;;
48849;SDS011;63210;53.370;6.770;2023-06-22T03:55:01;33.47;;;28.23;;
48849;SDS011;63210;53.370;6.770;2023-06-22T03:57:27;34.78;;;29.00;;
48849;SDS011;63210;53.370;6.770;2023-06-22T03:59:54;38.40;;;32.25;;
48849;SDS011;63210;53.370;6.770;2023-06-22T04:02:19;34.28;;;29.27;;
48849;SDS011;63210;53.370;6.770;2023-06-22T04:04:44;42.57;;;32.90;;
48849;SDS011;63210;53.370;6.770;2023-06-22T04:07:09;43.33;;;34.60;;
48849;SDS011;63210;53.370;6.770;2023-06-22T04:09:35;35.47;;;29.45;;
48849;SDS011;63210;53.370;6.770;2023-06-22T04:12:01;32.60;;;28.92;;
48849;SDS011;63210;53.370;6.770;2023-06-22T04:14:26;30.38;;;27.08;;
48849;SDS011;63210;53.370;6.770;2023-06-22T04:16:51;33.60;;;28.07;;
48849;SDS011;63210;53.370;6.770;2023-06-22T04:19:16;30.92;;;27.30;;
48849;SDS011;63210;53.370;6.770;2023-06-22T04:21:43;30.55;;;26.88;;
48849;SDS011;63210;53.370;6.770;2023-06-22T04:24:09;30.80;;;27.63;;
48849;SDS011;63210;53.370;6.770;2023-06-22T04:26:34;33.88;;;29.73;;
48849;SDS011;63210;53.370;6.770;2023-06-22T04:29:02;34.22;;;30.52;;
48849;SDS011;63210;53.370;6.770;2023-06-22T04:31:30;38.65;;;31.67;;
48849;SDS011;63210;53.370;6.770;2023-06-22T04:33:56;34.45;;;28.90;;
48849;SDS011;63210;53.370;6.770;2023-06-22T04:36:22;38.22;;;30.52;;
48849;SDS011;63210;53.370;6.770;2023-06-22T04:38:48;38.72;;;31.52;;
48849;SDS011;63210;53.370;6.770;2023-06-22T04:41:17;42.92;;;32.95;;
48849;SDS011;63210;53.370;6.770;2023-06-22T04:43:48;43.85;;;34.20;;
48849;SDS011;63210;53.370;6.770;2023-06-22T04:46:18;47.25;;;36.85;;
48849;SDS011;63210;53.370;6.770;2023-06-22T04:48:44;52.38;;;40.53;;
48849;SDS011;63210;53.370;6.770;2023-06-22T04:51:09;56.42;;;43.47;;
48849;SDS011;63210;53.370;6.770;2023-06-22T04:53:35;53.33;;;42.17;;
48849;SDS011;63210;53.370;6.770;2023-06-22T04:56:00;53.97;;;42.65;;
48849;SDS011;63210;53.370;6.770;2023-06-22T04:58:26;62.78;;;44.63;;
48849;SDS011;63210;53.370;6.770;2023-06-22T05:00:57;61.22;;;45.28;;
48849;SDS011;63210;53.370;6.770;2023-06-22T05:03:24;61.08;;;46.53;;
48849;SDS011;63210;53.370;6.770;2023-06-22T05:05:50;61.03;;;46.78;;
48849;SDS011;63210;53.370;6.770;2023-06-22T05:08:16;54.40;;;42.78;;
48849;SDS011;63210;53.370;6.770;2023-06-22T05:10:41;62.58;;;45.63;;
48849;SDS011;63210;53.370;6.770;2023-06-22T05:13:06;60.08;;;44.60;;
48849;SDS011;63210;53.370;6.770;2023-06-22T05:15:32;58.00;;;44.15;;
48849;SDS011;63210;53.370;6.770;2023-06-22T05:18:02;57.00;;;41.60;;
48849;SDS011;63210;53.370;6.770;2023-06-22T05:20:31;61.45;;;46.40;;
48849;SDS011;63210;53.370;6.770;2023-06-22T05:22:58;57.50;;;42.50;;
48849;SDS011;63210;53.370;6.770;2023-06-22T05:25:23;59.72;;;44.60;;
48849;SDS011;63210;53.370;6.770;2023-06-22T05:27:49;58.13;;;42.50;;
48849;SDS011;63210;53.370;6.770;2023-06-22T05:30:15;61.08;;;43.25;;
48849;SDS011;63210;53.370;6.770;2023-06-22T05:32:42;62.53;;;46.35;;
48849;SDS011;63210;53.370;6.770;2023-06-22T05:35:09;63.08;;;46.88;;
48849;SDS011;63210;53.370;6.770;2023-06-22T05:37:34;61.60;;;44.50;;
48849;SDS011;63210;53.370;6.770;2023-06-22T05:39:59;54.70;;;41.78;;
48849;SDS011;63210;53.370;6.770;2023-06-22T05:42:25;56.33;;;43.40;;
48849;SDS011;63210;53.370;6.770;2023-06-22T05:44:51;52.38;;;40.90;;
48849;SDS011;63210;53.370;6.770;2023-06-22T05:47:16;51.95;;;40.22;;
48849;SDS011;63210;53.370;6.770;2023-06-22T05:49:42;55.95;;;39.63;;
48849;SDS011;63210;53.370;6.770;2023-06-22T05:52:08;49.22;;;37.95;;
48849;SDS011;63210;53.370;6.770;2023-06-22T05:54:33;45.17;;;34.60;;
48849;SDS011;63210;53.370;6.770;2023-06-22T05:56:58;48.60;;;35.97;;
48849;SDS011;63210;53.370;6.770;2023-06-22T05:59:23;49.35;;;36.08;;
48849;SDS011;63210;53.370;6.770;2023-06-22T06:01:49;44.83;;;35.92;;
48849;SDS011;63210;53.370;6.770;2023-06-22T06:04:18;51.60;;;38.63;;
48849;SDS011;63210;53.370;6.770;2023-06-22T06:06:43;49.13;;;36.95;;
48849;SDS011;63210;53.370;6.770;2023-06-22T06:09:09;48.17;;;35.83;;
48849;SDS011;63210;53.370;6.770;2023-06-22T06:11:34;46.40;;;35.72;;
48849;SDS011;63210;53.370;6.770;2023-06-22T06:13:59;48.30;;;35.97;;
48849;SDS011;63210;53.370;6.770;2023-06-22T06:16:24;44.42;;;34.42;;
48849;SDS011;63210;53.370;6.770;2023-06-22T06:18:50;45.60;;;32.58;;
48849;SDS011;63210;53.370;6.770;2023-06-22T06:21:15;42.78;;;33.80;;
48849;SDS011;63210;53.370;6.770;2023-06-22T06:23:41;46.00;;;33.40;;
48849;SDS011;63210;53.370;6.770;2023-06-22T06:26:07;42.83;;;34.90;;
48849;SDS011;63210;53.370;6.770;2023-06-22T06:28:32;35.70;;;27.73;;
48849;SDS011;63210;53.370;6.770;2023-06-22T06:30:58;31.02;;;26.38;;
48849;SDS011;63210;53.370;6.770;2023-06-22T06:33:23;36.73;;;27.97;;
48849;SDS011;63210;53.370;6.770;2023-06-22T06:35:49;37.78;;;29.10;;
48849;SDS011;63210;53.370;6.770;2023-06-22T06:38:14;35.50;;;27.00;;
48849;SDS011;63210;53.370;6.770;2023-06-22T06:40:40;29.50;;;24.42;;
48849;SDS011;63210;53.370;6.770;2023-06-22T06:43:05;29.52;;;23.50;;
48849;SDS011;63210;53.370;6.770;2023-06-22T06:45:30;24.80;;;20.35;;
48849;SDS011;63210;53.370;6.770;2023-06-22T06:47:58;30.25;;;21.80;;
48849;SDS011;63210;53.370;6.770;2023-06-22T06:50:23;21.70;;;18.27;;
48849;SDS011;63210;53.370;6.770;2023-06-22T06:52:48;24.20;;;17.85;;
48849;SDS011;63210;53.370;6.770;2023-06-22T06:55:15;22.75;;;20.33;;
48849;SDS011;63210;53.370;6.770;2023-06-22T06:57:41;27.55;;;19.10;;
48849;SDS011;63210;53.370;6.770;2023-06-22T07:00:07;21.20;;;16.95;;
48849;SDS011;63210;53.370;6.770;2023-06-22T07:02:40;24.30;;;19.48;;
48849;SDS011;63210;53.370;6.770;2023-06-22T07:05:06;18.30;;;15.30;;
48849;SDS011;63210;53.370;6.770;2023-06-22T07:07:32;18.98;;;14.20;;
48849;SDS011;63210;53.370;6.770;2023-06-22T07:09:57;15.77;;;12.68;;
48849;SDS011;63210;53.370;6.770;2023-06-22T07:12:25;14.15;;;11.27;;
48849;SDS011;63210;53.370;6.770;2023-06-22T07:14:53;14.73;;;12.05;;
48849;SDS011;63210;53.370;6.770;2023-06-22T07:17:19;18.60;;;14.05;;
48849;SDS011;63210;53.370;6.770;2023-06-22T07:19:45;15.73;;;12.73;;
48849;SDS011;63210;53.370;6.770;2023-06-22T07:22:10;12.30;;;10.43;;
48849;SDS011;63210;53.370;6.770;2023-06-22T07:24:35;11.80;;;9.27;;
48849;SDS011;63210;53.370;6.770;2023-06-22T07:27:01;17.05;;;11.50;;
48849;SDS011;63210;53.370;6.770;2023-06-22T07:29:28;18.63;;;12.15;;
48849;SDS011;63210;53.370;6.770;2023-06-22T07:31:54;18.63;;;13.73;;
48849;SDS011;63210;53.370;6.770;2023-06-22T07:34:21;13.60;;;12.10;;
48849;SDS011;63210;53.370;6.770;2023-06-22T07:36:46;13.07;;;10.93;;
48849;SDS011;63210;53.370;6.770;2023-06-22T07:39:12;14.68;;;10.43;;
48849;SDS011;63210;53.370;6.770;2023-06-22T07:41:38;14.52;;;10.48;;
48849;SDS011;63210;53.370;6.770;2023-06-22T07:44:03;14.13;;;11.57;;
48849;SDS011;63210;53.370;6.770;2023-06-22T07:46:29;11.77;;;10.30;;
48849;SDS011;63210;53.370;6.770;2023-06-22T07:48:55;12.02;;;9.07;;
48849;SDS011;63210;53.370;6.770;2023-06-22T07:51:21;12.88;;;10.02;;
48849;SDS011;63210;53.370;6.770;2023-06-22T07:53:46;11.52;;;10.05;;
48849;SDS011;63210;53.370;6.770;2023-06-22T07:56:11;11.20;;;8.23;;
48849;SDS011;63210;53.370;6.770;2023-06-22T07:58:37;10.98;;;8.00;;
48849;SDS011;63210;53.370;6.770;2023-06-22T08:01:02;12.60;;;8.00;;
48849;SDS011;63210;53.370;6.770;2023-06-22T08:03:28;11.10;;;8.25;;
48849;SDS011;63210;53.370;6.770;2023-06-22T08:05:53;10.63;;;8.15;;
48849;SDS011;63210;53.370;6.770;2023-06-22T08:08:18;9.30;;;7.30;;
48849;SDS011;63210;53.370;6.770;2023-06-22T08:10:44;10.97;;;7.70;;
48849;SDS011;63210;53.370;6.770;2023-06-22T08:13:30;8.77;;;6.63;;
48849;SDS011;63210;53.370;6.770;2023-06-22T08:15:55;10.20;;;8.50;;
48849;SDS011;63210;53.370;6.770;2023-06-22T08:18:20;17.30;;;7.50;;
48849;SDS011;63210;53.370;6.770;2023-06-22T08:20:45;9.52;;;6.80;;
48849;SDS011;63210;53.370;6.770;2023-06-22T08:23:11;9.95;;;7.40;;
48849;SDS011;63210;53.370;6.770;2023-06-22T08:25:36;12.93;;;7.97;;
48849;SDS011;63210;53.370;6.770;2023-06-22T08:28:02;9.90;;;7.25;;
48849;SDS011;63210;53.370;6.770;2023-06-22T08:30:27;9.65;;;7.15;;
48849;SDS011;63210;53.370;6.770;2023-06-22T08:32:53;12.32;;;6.97;;
48849;SDS011;63210;53.370;6.770;2023-06-22T08:35:20;8.25;;;6.85;;
48849;SDS011;63210;53.370;6.770;2023-06-22T08:37:45;9.48;;;7.07;;
48849;SDS011;63210;53.370;6.770;2023-06-22T08:40:17;13.35;;;7.85;;
48849;SDS011;63210;53.370;6.770;2023-06-22T08:42:42;11.60;;;7.83;;
48849;SDS011;63210;53.370;6.770;2023-06-22T08:45:07;14.05;;;8.57;;
48849;SDS011;63210;53.370;6.770;2023-06-22T08:47:33;9.82;;;8.00;;
48849;SDS011;63210;53.370;6.770;2023-06-22T08:49:58;12.03;;;9.23;;
48849;SDS011;63210;53.370;6.770;2023-06-22T08:52:23;12.63;;;7.93;;
48849;SDS011;63210;53.370;6.770;2023-06-22T08:54:48;12.88;;;7.75;;
48849;SDS011;63210;53.370;6.770;2023-06-22T08:57:14;9.65;;;8.32;;
48849;SDS011;63210;53.370;6.770;2023-06-22T08:59:39;10.75;;;8.15;;
48849;SDS011;63210;53.370;6.770;2023-06-22T09:02:05;16.17;;;10.07;;
48849;SDS011;63210;53.370;6.770;2023-06-22T09:04:30;11.25;;;8.80;;
48849;SDS011;63210;53.370;6.770;2023-06-22T09:06:59;16.15;;;9.52;;
48849;SDS011;63210;53.370;6.770;2023-06-22T09:09:25;10.95;;;8.38;;
48849;SDS011;63210;53.370;6.770;2023-06-22T09:11:50;16.87;;;8.97;;
48849;SDS011;63210;53.370;6.770;2023-06-22T09:14:15;11.10;;;7.63;;
48849;SDS011;63210;53.370;6.770;2023-06-22T09:16:41;11.68;;;9.30;;
48849;SDS011;63210;53.370;6.770;2023-06-22T09:19:06;8.77;;;6.72;;
48849;SDS011;63210;53.370;6.770;2023-06-22T09:21:31;8.70;;;6.90;;
48849;SDS011;63210;53.370;6.770;2023-06-22T09:23:57;7.53;;;5.85;;
48849;SDS011;63210;53.370;6.770;2023-06-22T09:26:22;10.87;;;8.33;;
48849;SDS011;63210;53.370;6.770;2023-06-22T09:28:49;11.32;;;7.65;;
48849;SDS011;63210;53.370;6.770;2023-06-22T09:31:14;7.32;;;6.47;;
48849;SDS011;63210;53.370;6.770;2023-06-22T09:33:41;10.52;;;7.85;;
48849;SDS011;63210;53.370;6.770;2023-06-22T09:36:07;8.93;;;6.25;;
48849;SDS011;63210;53.370;6.770;2023-06-22T09:38:38;12.55;;;7.97;;
48849;SDS011;63210;53.370;6.770;2023-06-22T09:41:04;8.00;;;6.80;;
48849;SDS011;63210;53.370;6.770;2023-06-22T09:43:30;10.45;;;6.18;;
48849;SDS011;63210;53.370;6.770;2023-06-22T09:45:56;10.02;;;5.90;;
48849;SDS011;63210;53.370;6.770;2023-06-22T09:48:21;6.18;;;4.88;;
48849;SDS011;63210;53.370;6.770;2023-06-22T09:50:46;9.50;;;6.83;;
48849;SDS011;63210;53.370;6.770;2023-06-22T09:53:12;8.30;;;5.50;;
48849;SDS011;63210;53.370;6.770;2023-06-22T09:55:37;7.10;;;5.13;;
48849;SDS011;63210;53.370;6.770;2023-06-22T09:58:02;7.00;;;6.18;;
48849;SDS011;63210;53.370;6.770;2023-06-22T10:00:28;6.85;;;6.10;;
48849;SDS011;63210;53.370;6.770;2023-06-22T10:02:53;9.25;;;6.47;;
48849;SDS011;63210;53.370;6.770;2023-06-22T10:05:19;10.32;;;7.60;;
48849;SDS011;63210;53.370;6.770;2023-06-22T10:07:44;7.72;;;6.93;;
48849;SDS011;63210;53.370;6.770;2023-06-22T10:10:10;12.23;;;6.20;;
48849;SDS011;63210;53.370;6.770;2023-06-22T10:12:35;8.45;;;6.90;;
48849;SDS011;63210;53.370;6.770;2023-06-22T10:15:00;8.15;;;7.35;;
48849;SDS011;63210;53.370;6.770;2023-06-22T10:17:26;8.50;;;6.97;;
48849;SDS011;63210;53.370;6.770;2023-06-22T10:19:51;9.32;;;6.78;;
48849;SDS011;63210;53.370;6.770;2023-06-22T10:22:16;8.57;;;6.30;;
48849;SDS011;63210;53.370;6.770;2023-06-22T10:24:42;9.25;;;7.05;;
48849;SDS011;63210;53.370;6.770;2023-06-22T10:27:11;10.05;;;6.32;;
48849;SDS011;63210;53.370;6.770;2023-06-22T10:29:37;9.48;;;7.28;;
48849;SDS011;63210;53.370;6.770;2023-06-22T10:32:02;12.82;;;6.63;;
48849;SDS011;63210;53.370;6.770;2023-06-22T10:34:27;9.05;;;5.78;;
48849;SDS011;63210;53.370;6.770;2023-06-22T10:36:53;7.33;;;6.40;;
48849;SDS011;63210;53.370;6.770;2023-06-22T10:39:18;6.30;;;5.00;;
48849;SDS011;63210;53.370;6.770;2023-06-22T10:41:43;8.68;;;5.40;;
48849;SDS011;63210;53.370;6.770;2023-06-22T10:44:09;7.82;;;5.43;;
48849;SDS011;63210;53.370;6.770;2023-06-22T10:46:34;5.93;;;4.65;;
48849;SDS011;63210;53.370;6.770;2023-06-22T10:48:59;7.33;;;5.37;;
48849;SDS011;63210;53.370;6.770;2023-06-22T10:51:25;5.53;;;4.50;;
48849;SDS011;63210;53.370;6.770;2023-06-22T10:53:50;6.30;;;3.92;;
48849;SDS011;63210;53.370;6.770;2023-06-22T10:56:16;6.78;;;3.60;;
48849;SDS011;63210;53.370;6.770;2023-06-22T10:58:41;6.75;;;3.67;;
48849;SDS011;63210;53.370;6.770;2023-06-22T11:01:06;5.38;;;3.63;;
48849;SDS011;63210;53.370;6.770;2023-06-22T11:03:32;5.60;;;2.97;;
48849;SDS011;63210;53.370;6.770;2023-06-22T11:05:57;6.15;;;3.60;;
48849;SDS011;63210;53.370;6.770;2023-06-22T11:08:22;5.60;;;3.10;;
48849;SDS011;63210;53.370;6.770;2023-06-22T11:10:47;4.20;;;3.30;;
48849;SDS011;63210;53.370;6.770;2023-06-22T11:13:13;6.40;;;3.65;;
48849;SDS011;63210;53.370;6.770;2023-06-22T11:15:38;5.78;;;3.00;;
48849;SDS011;63210;53.370;6.770;2023-06-22T11:18:04;7.32;;;3.25;;
48849;SDS011;63210;53.370;6.770;2023-06-22T11:20:30;4.80;;;3.50;;
48849;SDS011;63210;53.370;6.770;2023-06-22T11:22:55;5.90;;;3.33;;
48849;SDS011;63210;53.370;6.770;2023-06-22T11:25:21;5.85;;;3.50;;
48849;SDS011;63210;53.370;6.770;2023-06-22T11:27:46;3.85;;;3.28;;
48849;SDS011;63210;53.370;6.770;2023-06-22T11:30:11;6.82;;;4.20;;
48849;SDS011;63210;53.370;6.770;2023-06-22T11:32:37;4.18;;;3.25;;
48849;SDS011;63210;53.370;6.770;2023-06-22T11:35:02;5.10;;;3.60;;
48849;SDS011;63210;53.370;6.770;2023-06-22T11:37:27;6.53;;;4.00;;
48849;SDS011;63210;53.370;6.770;2023-06-22T11:39:52;8.13;;;4.63;;
48849;SDS011;63210;53.370;6.770;2023-06-22T11:42:20;6.90;;;3.30;;
48849;SDS011;63210;53.370;6.770;2023-06-22T11:44:45;6.57;;;3.38;;
48849;SDS011;63210;53.370;6.770;2023-06-22T11:47:10;4.72;;;3.45;;
48849;SDS011;63210;53.370;6.770;2023-06-22T11:49:36;5.45;;;3.50;;
48849;SDS011;63210;53.370;6.770;2023-06-22T11:52:01;8.43;;;3.63;;
48849;SDS011;63210;53.370;6.770;2023-06-22T11:54:26;4.85;;;3.10;;
48849;SDS011;63210;53.370;6.770;2023-06-22T11:56:51;6.10;;;3.37;;
48849;SDS011;63210;53.370;6.770;2023-06-22T11:59:17;5.53;;;3.28;;
48849;SDS011;63210;53.370;6.770;2023-06-22T12:01:42;5.50;;;3.33;;
48849;SDS011;63210;53.370;6.770;2023-06-22T12:04:07;8.70;;;3.47;;
48849;SDS011;63210;53.370;6.770;2023-06-22T12:06:36;7.10;;;3.60;;
48849;SDS011;63210;53.370;6.770;2023-06-22T12:09:03;6.85;;;3.28;;
48849;SDS011;63210;53.370;6.770;2023-06-22T12:11:29;5.15;;;3.10;;
48849;SDS011;63210;53.370;6.770;2023-06-22T12:13:54;4.15;;;3.17;;
48849;SDS011;63210;53.370;6.770;2023-06-22T12:16:20;3.70;;;2.93;;
48849;SDS011;63210;53.370;6.770;2023-06-22T12:18:46;4.43;;;3.13;;
48849;SDS011;63210;53.370;6.770;2023-06-22T12:21:12;3.33;;;2.78;;
48849;SDS011;63210;53.370;6.770;2023-06-22T12:23:37;3.53;;;2.77;;
48849;SDS011;63210;53.370;6.770;2023-06-22T12:26:02;4.57;;;2.37;;
48849;SDS011;63210;53.370;6.770;2023-06-22T12:28:28;5.60;;;2.50;;
48849;SDS011;63210;53.370;6.770;2023-06-22T12:30:53;3.13;;;2.30;;
48849;SDS011;63210;53.370;6.770;2023-06-22T12:33:18;3.53;;;1.93;;
48849;SDS011;63210;53.370;6.770;2023-06-22T12:35:43;5.40;;;2.00;;
48849;SDS011;63210;53.370;6.770;2023-06-22T12:38:10;4.13;;;2.20;;
48849;SDS011;63210;53.370;6.770;2023-06-22T12:40:36;3.47;;;2.00;;
48849;SDS011;63210;53.370;6.770;2023-06-22T12:43:01;3.35;;;1.80;;
48849;SDS011;63210;53.370;6.770;2023-06-22T12:45:27;3.03;;;2.10;;
48849;SDS011;63210;53.370;6.770;2023-06-22T12:47:54;4.20;;;2.00;;
48849;SDS011;63210;53.370;6.770;2023-06-22T12:50:19;2.95;;;1.90;;
48849;SDS011;63210;53.370;6.770;2023-06-22T12:52:44;2.83;;;2.10;;
48849;SDS011;63210;53.370;6.770;2023-06-22T12:55:09;8.77;;;2.10;;
48849;SDS011;63210;53.370;6.770;2023-06-22T12:57:35;3.38;;;2.08;;
48849;SDS011;63210;53.370;6.770;2023-06-22T13:00:00;6.03;;;2.57;;
48849;SDS011;63210;53.370;6.770;2023-06-22T13:02:26;3.45;;;2.35;;
48849;SDS011;63210;53.370;6.770;2023-06-22T13:04:51;4.10;;;2.20;;
48849;SDS011;63210;53.370;6.770;2023-06-22T13:07:16;4.63;;;2.10;;
48849;SDS011;63210;53.370;6.770;2023-06-22T13:09:41;6.90;;;1.95;;
48849;SDS011;63210;53.370;6.770;2023-06-22T13:12:07;4.80;;;2.80;;
48849;SDS011;63210;53.370;6.770;2023-06-22T13:14:32;2.58;;;2.28;;
48849;SDS011;63210;53.370;6.770;2023-06-22T13:16:57;7.32;;;2.33;;
48849;SDS011;63210;53.370;6.770;2023-06-22T13:19:23;8.25;;;2.35;;
48849;SDS011;63210;53.370;6.770;2023-06-22T13:21:48;6.45;;;2.75;;
48849;SDS011;63210;53.370;6.770;2023-06-22T13:24:13;4.27;;;2.17;;
48849;SDS011;63210;53.370;6.770;2023-06-22T13:26:39;5.07;;;2.20;;
48849;SDS011;63210;53.370;6.770;2023-06-22T13:29:04;8.30;;;1.93;;
48849;SDS011;63210;53.370;6.770;2023-06-22T13:31:29;3.13;;;2.15;;
48849;SDS011;63210;53.370;6.770;2023-06-22T13:33:54;5.03;;;2.07;;
48849;SDS011;63210;53.370;6.770;2023-06-22T13:36:20;8.52;;;2.00;;
48849;SDS011;63210;53.370;6.770;2023-06-22T13:38:46;5.03;;;2.10;;
48849;SDS011;63210;53.370;6.770;2023-06-22T13:41:12;5.43;;;2.15;;
48849;SDS011;63210;53.370;6.770;2023-06-22T13:43:37;4.88;;;1.90;;
48849;SDS011;63210;53.370;6.770;2023-06-22T13:46:03;5.15;;;2.50;;
48849;SDS011;63210;53.370;6.770;2023-06-22T13:48:28;9.10;;;2.07;;
48849;SDS011;63210;53.370;6.770;2023-06-22T13:50:53;2.70;;;1.92;;
48849;SDS011;63210;53.370;6.770;2023-06-22T13:53:19;8.23;;;2.70;;
48849;SDS011;63210;53.370;6.770;2023-06-22T13:55:47;5.40;;;1.90;;
48849;SDS011;63210;53.370;6.770;2023-06-22T13:58:12;5.28;;;2.20;;
48849;SDS011;63210;53.370;6.770;2023-06-22T14:00:38;2.97;;;2.17;;
48849;SDS011;63210;53.370;6.770;2023-06-22T14:03:03;2.63;;;1.80;;
48849;SDS011;63210;53.370;6.770;2023-06-22T14:05:28;3.72;;;2.00;;
48849;SDS011;63210;53.370;6.770;2023-06-22T14:07:53;6.20;;;1.80;;
48849;SDS011;63210;53.370;6.770;2023-06-22T14:10:19;4.33;;;2.03;;
48849;SDS011;63210;53.370;6.770;2023-06-22T14:12:44;4.82;;;1.90;;
48849;SDS011;63210;53.370;6.770;2023-06-22T14:15:10;3.70;;;2.10;;
48849;SDS011;63210;53.370;6.770;2023-06-22T14:17:35;4.28;;;2.22;;
48849;SDS011;63210;53.370;6.770;2023-06-22T14:20:00;4.63;;;1.80;;
48849;SDS011;63210;53.370;6.770;2023-06-22T14:22:26;4.43;;;2.10;;
48849;SDS011;63210;53.370;6.770;2023-06-22T14:24:54;5.60;;;1.75;;
48849;SDS011;63210;53.370;6.770;2023-06-22T14:27:21;4.28;;;1.63;;
48849;SDS011;63210;53.370;6.770;2023-06-22T14:29:46;2.67;;;2.05;;
48849;SDS011;63210;53.370;6.770;2023-06-22T14:32:11;4.07;;;2.00;;
48849;SDS011;63210;53.370;6.770;2023-06-22T14:34:37;4.40;;;1.90;;
48849;SDS011;63210;53.370;6.770;2023-06-22T14:37:05;2.70;;;1.60;;